Time;durP1;ratioP1;P1;durP2;ratioP2;P2;SDS_P1;SDS_P2;PMS_P1;PMS_P2;Temp;Humidity;BMP_temperature;BMP_pressure;BME280_temperature;BME280_humidity;BME280_pressure;Samples;Min_cycle;Max_cycle;Signal;HPM_P1;HPM_P2
2024/04/07 00:01:12;;;;;;;2.60;1.57;;;;;;;18.63;58.88;100646.34;10414848;28;20326;-61
2024/04/07 00:06:13;;;;;;;2.57;1.30;;;;;;;18.62;58.35;100677.00;10415197;28;20330;-61
2024/04/07 00:11:15;;;;;;;2.70;1.73;;;;;;;18.62;58.65;100661.66;10396435;28;20374;-61
2024/04/07 00:16:16;;;;;;;2.70;1.20;;;;;;;18.61;58.32;100641.28;10414628;28;20296;-61
2024/04/07 00:21:16;;;;;;;4.47;1.37;;;;;;;18.61;58.55;100646.66;10414073;28;20465;-61
2024/04/07 00:26:16;;;;;;;2.30;1.40;;;;;;;18.61;58.11;100670.81;10414319;28;20025;-61
2024/04/07 00:31:17;;;;;;;3.45;1.48;;;;;;;18.61;58.34;100723.75;10413698;28;20756;-60
2024/04/07 00:36:17;;;;;;;3.87;1.30;;;;;;;18.61;58.61;100699.56;10413715;28;20029;-61
2024/04/07 00:41:17;;;;;;;3.37;1.77;;;;;;;18.61;58.40;100699.56;10412132;28;20287;-61
2024/04/07 00:46:18;;;;;;;2.60;1.20;;;;;;;18.59;58.21;100694.50;10413631;28;20287;-61
2024/04/07 00:51:19;;;;;;;3.13;1.55;;;;;;;18.60;58.78;100733.69;10395167;28;20956;-61
2024/04/07 00:56:20;;;;;;;2.92;1.50;;;;;;;18.60;58.78;100725.63;10395463;28;20025;-61
2024/04/07 01:01:20;;;;;;;3.10;2.25;;;;;;;18.60;58.29;100768.59;10412578;28;20029;-61
2024/04/07 01:06:20;;;;;;;2.73;1.80;;;;;;;18.59;58.25;100779.63;10412694;28;20456;-60
2024/04/07 01:11:26;;;;;;;2.57;1.33;;;;;;;18.59;57.99;100779.63;10412025;28;20299;-60
2024/04/07 01:16:26;;;;;;;3.65;1.50;;;;;;;18.58;58.46;100761.91;10410978;28;20296;-61
2024/04/07 01:21:27;;;;;;;2.57;1.37;;;;;;;18.57;58.66;100765.69;10411685;28;20461;-61
2024/04/07 01:26:27;;;;;;;2.67;1.43;;;;;;;18.57;58.40;100803.28;10411901;28;20367;-61
2024/04/07 01:31:27;;;;;;;2.75;1.42;;;;;;;18.57;58.46;100840.88;10411316;28;20354;-61
2024/04/07 01:36:28;;;;;;;3.60;1.67;;;;;;;18.56;58.36;100817.78;10411415;28;20036;-61
2024/04/07 01:41:28;;;;;;;2.72;1.40;;;;;;;18.56;58.20;100858.06;10411265;28;20752;-61
2024/04/07 01:46:28;;;;;;;3.47;1.97;;;;;;;18.56;57.91;100841.97;10411312;28;20025;-61
2024/04/07 01:51:28;;;;;;;3.17;2.10;;;;;;;18.54;58.56;100847.63;10410410;28;20284;-61
2024/04/07 01:56:29;;;;;;;2.30;1.47;;;;;;;18.54;58.06;100850.31;10410371;28;20276;-61
2024/04/07 02:01:29;;;;;;;6.43;1.47;;;;;;;18.55;58.74;100867.22;10410038;28;20288;-61
2024/04/07 02:06:29;;;;;;;2.05;1.20;;;;;;;18.55;58.05;100894.88;10410127;28;20292;-60
2024/04/07 02:11:30;;;;;;;2.78;1.30;;;;;;;18.53;58.16;100907.78;10409693;28;20037;-60
2024/04/07 02:16:31;;;;;;;2.23;1.50;;;;;;;18.54;57.86;100913.97;10410022;28;20053;-61
2024/04/07 02:21:32;;;;;;;2.47;1.70;;;;;;;18.53;57.88;100926.59;10391621;28;20498;-61
2024/04/07 02:26:32;;;;;;;3.50;1.42;;;;;;;18.53;57.86;100966.06;10408631;28;20668;-61
2024/04/07 02:31:33;;;;;;;2.97;1.33;;;;;;;18.53;58.05;100974.13;10413844;28;20163;-61
2024/04/07 02:36:34;;;;;;;3.17;1.42;;;;;;;18.52;58.34;100962.59;10393656;28;20335;-61
2024/04/07 02:41:36;;;;;;;2.70;1.50;;;;;;;18.52;58.36;100973.31;10408952;28;20165;-61
2024/04/07 02:51:55;;;;;;;5.43;2.72;;;;;;;18.51;58.50;100971.72;10408604;28;20037;-61
2024/04/07 02:56:55;;;;;;;2.33;1.67;;;;;;;18.51;57.89;100957.50;10408974;28;20029;-61
2024/04/07 03:01:56;;;;;;;21.40;2.40;;;;;;;18.49;58.73;100940.91;10390638;28;20599;-60
2024/04/07 03:07:00;;;;;;;2.03;1.17;;;;;;;18.50;57.85;100947.88;10414119;28;20290;-60
2024/04/07 03:12:00;;;;;;;2.50;1.20;;;;;;;18.49;58.14;100948.94;10416492;28;20296;-60
2024/04/07 03:17:01;;;;;;;2.47;1.10;;;;;;;18.48;58.31;100945.47;10399089;28;20068;-60
2024/04/07 03:22:01;;;;;;;2.75;1.23;;;;;;;18.49;58.16;100932.84;10416289;28;20279;-61
2024/04/07 03:27:01;;;;;;;1.77;1.25;;;;;;;18.48;58.79;100931.25;10416395;28;20056;-61
2024/04/07 03:32:03;;;;;;;2.08;1.08;;;;;;;18.47;58.53;100925.06;10398047;28;20025;-61
2024/04/07 03:37:07;;;;;;;2.08;1.20;;;;;;;18.48;58.46;100933.94;10416171;28;20037;-61
2024/04/07 03:42:07;;;;;;;2.40;0.90;;;;;;;18.47;57.74;100926.94;10415625;28;20536;-61
2024/04/07 03:47:08;;;;;;;4.28;1.52;;;;;;;18.47;58.75;100949.25;10415823;28;20099;-61
2024/04/07 03:52:08;;;;;;;3.53;1.60;;;;;;;18.46;58.61;100947.63;10415011;28;20021;-61
2024/04/07 03:57:08;;;;;;;2.33;0.83;;;;;;;18.46;58.10;100934.19;10415561;28;20480;-61
2024/04/07 04:02:08;;;;;;;4.03;1.30;;;;;;;18.45;58.12;100921.06;10414839;28;20284;-61
2024/04/07 04:07:09;;;;;;;2.37;0.87;;;;;;;18.45;57.64;100921.84;10413845;28;20323;-61
2024/04/07 04:12:09;;;;;;;1.83;1.30;;;;;;;18.44;57.66;100927.53;10412937;28;20450;-61
2024/04/07 04:17:10;;;;;;;1.47;0.90;;;;;;;18.44;57.16;100928.31;10412252;28;20304;-61
2024/04/07 04:22:11;;;;;;;1.88;1.00;;;;;;;18.43;57.96;100913.31;10412852;28;20057;-61
2024/04/07 04:27:11;;;;;;;1.80;0.93;;;;;;;18.42;58.04;100925.94;10393779;28;20053;-61
2024/04/07 04:32:12;;;;;;;1.75;1.10;;;;;;;18.42;57.50;100946.59;10412115;28;20033;-61
2024/04/07 04:37:12;;;;;;;3.10;1.05;;;;;;;18.42;57.43;100965.41;10406209;28;20062;-61
2024/04/07 04:42:13;;;;;;;0.88;0.60;;;;;;;18.41;57.59;100967.28;10412008;28;20017;-61
2024/04/07 04:47:13;;;;;;;1.60;0.77;;;;;;;18.41;58.15;100947.69;10412203;28;20361;-61
2024/04/07 04:52:13;;;;;;;1.38;1.00;;;;;;;18.40;57.51;100954.94;10412213;28;20295;-61
2024/04/07 04:57:14;;;;;;;2.70;1.20;;;;;;;18.40;57.28;100959.53;10413265;28;20075;-61
2024/04/07 05:02:14;;;;;;;1.30;0.90;;;;;;;18.39;58.12;100969.47;10412626;28;20315;-61
2024/04/07 05:07:14;;;;;;;1.33;0.70;;;;;;;18.39;58.01;100974.03;10411080;28;20280;-61
2024/04/07 05:12:15;;;;;;;3.25;1.10;;;;;;;18.39;57.78;100999.00;10410784;28;20300;-60
2024/04/07 05:17:15;;;;;;;1.50;1.00;;;;;;;18.38;57.80;100993.91;10412211;28;20057;-60
2024/04/07 05:22:16;;;;;;;2.47;0.73;;;;;;;18.40;58.73;101013.22;10411265;28;20758;-61
2024/04/07 05:27:16;;;;;;;3.47;1.00;;;;;;;18.44;58.67;101022.28;10411609;28;20025;-60
2024/04/07 05:32:17;;;;;;;8.80;1.33;;;;;;;18.44;58.26;101040.28;10411060;28;20033;-62
2024/04/07 05:37:17;;;;;;;3.80;0.88;;;;;;;18.50;59.56;101057.94;10393547;28;20384;-62
2024/04/07 05:42:18;;;;;;;3.75;1.13;;;;;;;18.55;59.14;101042.56;10411274;28;20017;-62
2024/04/07 05:47:18;;;;;;;5.70;1.10;;;;;;;18.53;58.85;101060.84;10411018;28;20108;-62
2024/04/07 05:52:19;;;;;;;7.97;1.50;;;;;;;18.49;59.08;101059.03;10410400;28;20022;-64
2024/04/07 05:57:19;;;;;;;5.03;1.50;;;;;;;18.46;59.21;101065.75;10410588;28;20308;-63
2024/04/07 06:02:19;;;;;;;10.57;1.40;;;;;;;18.44;58.83;101067.13;10392187;28;20108;-63
2024/04/07 06:07:20;;;;;;;9.10;1.80;;;;;;;18.44;59.63;101086.72;10392524;28;20362;-67
2024/04/07 06:12:20;;;;;;;6.20;1.07;;;;;;;18.45;59.71;101092.91;10409444;28;20030;-62
2024/04/07 06:17:21;;;;;;;7.60;1.23;;;;;;;18.45;58.89;101090.22;10392042;28;20292;-63
2024/04/07 06:22:21;;;;;;;3.78;1.08;;;;;;;18.43;59.70;101095.88;10392139;28;20025;-63
2024/04/07 06:27:22;;;;;;;8.70;2.40;;;;;;;18.43;59.22;101103.94;10409673;28;20033;-64
2024/04/07 06:32:22;;;;;;;10.68;1.60;;;;;;;18.42;60.12;101108.50;10416912;28;20291;-61
2024/04/07 06:37:23;;;;;;;9.17;1.70;;;;;;;18.43;59.82;101106.63;10428970;28;20043;-62
2024/04/07 06:42:28;;;;;;;11.50;2.33;;;;;;;18.42;60.46;101105.81;10399946;28;20268;-62
2024/04/07 06:47:28;;;;;;;7.38;1.75;;;;;;;18.43;60.11;101111.97;10408335;28;20025;-60
2024/04/07 06:52:29;;;;;;;9.00;2.33;;;;;;;18.43;60.71;101117.34;10413434;28;20033;-65
2024/04/07 06:57:29;;;;;;;6.97;1.20;;;;;;;18.44;60.21;101116.25;10408208;28;20029;-61
2024/04/07 07:02:29;;;;;;;10.63;1.77;;;;;;;18.43;60.82;101114.66;10417710;28;20027;-62
2024/04/07 07:07:30;;;;;;;8.68;1.10;;;;;;;18.44;60.55;101115.47;10418406;28;20031;-62
2024/04/07 07:12:31;;;;;;;18.02;2.40;;;;;;;18.44;61.16;101110.91;10398860;28;20395;-62
2024/04/07 07:17:31;;;;;;;6.57;0.90;;;;;;;18.44;60.18;101128.88;10408625;28;20053;-62
2024/04/07 07:22:32;;;;;;;4.00;0.90;;;;;;;18.44;60.07;101129.69;10391082;28;20433;-62
2024/04/07 07:27:32;;;;;;;4.67;1.00;;;;;;;18.44;59.49;101131.56;10389343;28;20025;-61
2024/04/07 07:32:33;;;;;;;4.10;0.70;;;;;;;18.43;59.79;101136.16;10398419;28;20018;-62
2024/04/07 07:37:34;;;;;;;6.28;1.10;;;;;;;18.44;59.14;101158.44;10403701;28;20029;-61
2024/04/07 07:42:34;;;;;;;6.73;1.07;;;;;;;18.42;58.86;101158.72;10408036;28;20025;-61
2024/04/07 07:47:34;;;;;;;4.10;0.80;;;;;;;18.42;59.22;101164.88;10407501;28;20371;-61
2024/04/07 07:52:35;;;;;;;4.03;0.90;;;;;;;18.42;59.13;101183.69;10393867;28;20860;-61
2024/04/07 07:57:35;;;;;;;7.55;2.42;;;;;;;18.41;59.03;101173.22;10396944;28;20468;-61
2024/04/07 08:02:35;;;;;;;4.13;1.20;;;;;;;18.40;58.61;101177.00;10414576;28;20026;-61
2024/04/07 08:07:36;;;;;;;3.23;0.87;;;;;;;18.39;58.42;101184.25;10412648;28;20739;-61
2024/04/07 08:12:38;;;;;;;5.60;1.40;;;;;;;18.39;58.82;101191.50;10413570;28;20287;-61
2024/04/07 08:17:38;;;;;;;1.95;0.70;;;;;;;18.40;59.38;101198.47;10413831;28;20040;-60
2024/04/07 08:22:38;;;;;;;2.55;0.90;;;;;;;18.40;58.83;101199.28;10413039;28;20034;-61
2024/04/07 08:27:39;;;;;;;2.45;0.68;;;;;;;18.40;58.64;101199.28;10413238;28;20029;-61
2024/04/07 08:32:39;;;;;;;2.30;0.93;;;;;;;18.41;59.22;101206.25;10419047;28;20030;-62
2024/04/07 08:37:40;;;;;;;4.30;0.80;;;;;;;18.41;58.33;101200.06;10410362;28;20033;-60
2024/04/07 08:42:41;;;;;;;5.97;0.90;;;;;;;18.44;59.58;101204.88;10395993;28;20025;-61
2024/04/07 08:47:42;;;;;;;6.85;1.48;;;;;;;18.45;59.93;101211.03;10378411;28;20029;-61
2024/04/07 08:52:43;;;;;;;6.32;1.52;;;;;;;18.48;59.16;101205.94;10410745;28;20107;-63
2024/04/07 08:57:44;;;;;;;19.08;2.80;;;;;;;18.54;58.96;101201.31;10394758;28;20065;-61
2024/04/07 09:02:45;;;;;;;8.65;1.38;;;;;;;18.56;59.20;101209.88;10392783;28;20116;-61
2024/04/07 09:07:45;;;;;;;11.32;2.05;;;;;;;18.56;59.02;101210.66;10390279;28;20034;-61
2024/04/07 09:12:46;;;;;;;15.07;1.93;;;;;;;18.56;58.85;101226.78;10411250;28;20033;-61
2024/04/07 09:17:46;;;;;;;8.18;1.58;;;;;;;18.56;58.77;101216.03;10394118;28;20029;-61
2024/04/07 09:22:47;;;;;;;5.68;1.45;;;;;;;18.54;58.85;101218.22;10410504;28;20048;-60
2024/04/07 09:27:47;;;;;;;4.57;1.15;;;;;;;18.57;59.04;101228.38;10410101;28;20022;-61
2024/04/07 09:32:48;;;;;;;4.25;1.25;;;;;;;18.57;58.78;101214.16;10417616;28;20117;-62
2024/04/07 09:37:49;;;;;;;8.02;1.63;;;;;;;18.59;58.31;101222.75;10393142;28;20481;-61
2024/04/07 09:42:50;;;;;;;7.18;1.58;;;;;;;18.62;58.42;101219.50;10409301;28;20025;-62
2024/04/07 09:47:58;;;;;;;2.60;1.05;;;;;;;18.64;58.31;101234.25;10409445;28;20469;-60
2024/04/07 09:53:15;;;;;;;3.90;1.02;;;;;;;18.64;58.53;101223.53;10408001;28;20465;-62
2024/04/07 09:58:16;;;;;;;3.53;1.50;;;;;;;18.65;58.86;101227.81;10409028;28;20044;-61
2024/04/07 10:03:17;;;;;;;3.40;1.17;;;;;;;18.67;58.59;101220.25;10392114;28;20076;-62
2024/04/07 10:08:18;;;;;;;8.40;2.60;;;;;;;18.67;57.83;101236.38;10391933;28;20057;-63
2024/04/07 10:13:22;;;;;;;8.07;1.75;;;;;;;18.70;57.88;101233.13;10409426;28;20037;-61
2024/04/07 10:18:22;;;;;;;11.55;2.78;;;;;;;18.72;58.19;101230.16;10390493;28;20048;-62
2024/04/07 10:23:26;;;;;;;9.70;2.07;;;;;;;18.75;57.77;101218.06;10390727;28;20032;-60
2024/04/07 10:28:26;;;;;;;10.07;1.90;;;;;;;18.75;57.68;101224.22;10408462;28;20350;-60
2024/04/07 10:33:30;;;;;;;10.53;1.73;;;;;;;18.75;57.60;101223.44;10407785;28;20034;-62
2024/04/07 10:38:46;;;;;;;9.32;2.00;;;;;;;18.75;57.86;101216.16;10389919;28;20747;-60
2024/04/07 10:43:46;;;;;;;5.03;1.58;;;;;;;18.83;57.85;101217.44;10389082;28;20596;-60
2024/04/07 10:48:48;;;;;;;5.47;1.50;;;;;;;18.88;57.57;101210.13;10407207;28;20079;-61
2024/04/07 10:53:59;;;;;;;8.77;1.95;;;;;;;18.93;57.35;101206.56;10405550;28;20393;-61
2024/04/07 10:59:01;;;;;;;3.38;1.15;;;;;;;18.96;57.44;101208.69;10372972;28;20043;-61
2024/04/07 11:04:01;;;;;;;4.80;1.17;;;;;;;19.05;57.48;101209.66;10389876;28;20107;-61
2024/04/07 11:09:03;;;;;;;9.90;1.60;;;;;;;19.08;57.77;101197.53;10407585;28;20100;-63
2024/04/07 11:14:03;;;;;;;7.88;1.58;;;;;;;19.10;57.91;101193.47;10390202;28;20128;-62
2024/04/07 11:19:03;;;;;;;8.52;1.83;;;;;;;19.15;57.63;101195.28;10407236;28;20033;-62
2024/04/07 11:24:04;;;;;;;4.32;1.42;;;;;;;19.17;57.68;101199.28;10408032;28;20547;-62
2024/04/07 11:29:05;;;;;;;4.72;1.90;;;;;;;19.21;57.90;101211.09;10414689;28;20509;-60
2024/04/07 11:34:05;;;;;;;4.35;1.48;;;;;;;19.24;57.59;101197.06;10423007;28;20029;-62
2024/04/07 11:39:06;;;;;;;5.93;1.37;;;;;;;19.28;57.70;101195.38;10415419;28;20440;-60
2024/04/07 11:44:06;;;;;;;6.72;2.03;;;;;;;19.31;56.41;101204.00;10397976;28;20372;-61
2024/04/07 11:49:09;;;;;;;5.82;1.40;;;;;;;19.35;56.84;101207.69;10415660;28;20112;-61
2024/04/07 11:54:10;;;;;;;4.35;1.20;;;;;;;19.37;57.03;101181.31;10415482;28;20045;-61
2024/04/07 11:59:10;;;;;;;7.90;1.40;;;;;;;19.39;56.95;101189.88;10414995;28;20017;-61
2024/04/07 12:04:10;;;;;;;6.40;1.20;;;;;;;19.44;56.80;101179.06;10380772;28;20025;-61
2024/04/07 12:09:11;;;;;;;4.37;1.63;;;;;;;19.41;56.68;101193.06;10414486;28;20032;-60
2024/04/07 12:14:11;;;;;;;4.45;1.45;;;;;;;19.45;56.11;101161.84;10396762;28;20314;-60
2024/04/07 12:19:13;;;;;;;4.00;1.05;;;;;;;19.47;56.14;101183.88;10414307;28;20037;-60
2024/04/07 12:24:15;;;;;;;4.82;0.70;;;;;;;19.50;55.35;101177.91;10396714;28;20112;-61
2024/04/07 12:29:15;;;;;;;6.15;1.00;;;;;;;19.54;55.28;101187.81;10395574;28;20033;-61
2024/04/07 12:34:15;;;;;;;3.77;1.03;;;;;;;19.53;55.55;101183.53;10404967;28;20055;-59
2024/04/07 12:39:16;;;;;;;8.77;1.10;;;;;;;19.57;54.44;101167.63;10412587;28;20736;-59
2024/04/07 12:44:17;;;;;;;5.28;1.00;;;;;;;19.61;55.21;101165.13;10413606;28;20026;-59
2024/04/07 12:49:21;;;;;;;4.88;1.17;;;;;;;19.64;54.71;101168.03;10412938;28;20083;-59
2024/04/07 12:54:21;;;;;;;2.53;0.65;;;;;;;19.68;55.18;101157.50;10412819;28;20071;-59
2024/04/07 12:59:21;;;;;;;3.50;1.27;;;;;;;19.70;54.88;101145.38;10411730;28;20026;-60
2024/04/07 13:04:22;;;;;;;3.90;0.90;;;;;;;19.73;54.52;101134.00;10410751;28;20025;-60
2024/04/07 13:09:22;;;;;;;2.30;1.13;;;;;;;19.74;54.35;101132.13;10393909;28;20997;-60
2024/04/07 13:14:22;;;;;;;2.83;1.10;;;;;;;19.75;54.79;101142.59;10393780;28;20327;-61
2024/04/07 13:19:23;;;;;;;8.38;2.33;;;;;;;19.79;54.56;101138.22;10412491;28;20025;-60
2024/04/07 13:24:23;;;;;;;2.70;0.80;;;;;;;19.79;54.63;101123.97;10414632;28;20520;-60
2024/04/07 13:29:23;;;;;;;2.87;1.10;;;;;;;19.74;54.60;101110.59;10411431;28;20080;-60
2024/04/07 13:34:24;;;;;;;2.73;1.03;;;;;;;19.69;53.62;101116.88;10415374;28;20679;-60
2024/04/07 13:39:26;;;;;;;2.53;0.70;;;;;;;19.62;54.58;101115.63;10392961;28;20041;-60
2024/04/07 13:44:27;;;;;;;6.57;1.45;;;;;;;19.55;53.83;101116.81;10411055;28;20323;-62
2024/04/07 13:49:30;;;;;;;3.42;1.20;;;;;;;19.52;54.25;101108.47;10410094;28;20076;-61
2024/04/07 13:54:30;;;;;;;1.75;0.85;;;;;;;19.51;54.72;101098.81;10410689;28;20021;-61
2024/04/07 13:59:31;;;;;;;2.13;0.73;;;;;;;19.53;54.43;101084.00;10410038;28;20037;-61
2024/04/07 14:04:31;;;;;;;1.57;0.60;;;;;;;19.58;54.99;101093.09;10410227;28;20336;-61
2024/04/07 14:09:31;;;;;;;2.23;0.90;;;;;;;19.56;54.21;101088.81;10409766;28;21062;-60
2024/04/07 14:14:32;;;;;;;4.18;0.77;;;;;;;19.56;54.09;101075.38;10391360;28;20303;-61
2024/04/07 14:19:38;;;;;;;3.60;1.38;;;;;;;19.56;53.85;101074.56;10407514;28;20070;-60
2024/04/07 14:24:38;;;;;;;2.22;0.80;;;;;;;19.53;54.01;101086.69;10405985;28;20417;-60
2024/04/07 14:29:39;;;;;;;2.50;0.60;;;;;;;19.51;54.30;101063.84;10406369;28;20104;-61
2024/04/07 14:34:39;;;;;;;5.73;0.90;;;;;;;19.52;54.76;101050.09;10406969;28;20079;-60
2024/04/07 14:39:39;;;;;;;1.30;0.70;;;;;;;19.51;54.56;101039.63;10405831;28;20279;-60
2024/04/07 14:44:40;;;;;;;2.63;0.60;;;;;;;19.52;54.28;101036.66;10404314;28;20048;-61
2024/04/07 14:49:40;;;;;;;6.83;0.90;;;;;;;19.55;54.50;101030.75;10405041;28;20760;-61
2024/04/07 14:54:40;;;;;;;4.27;1.33;;;;;;;19.60;54.37;101039.81;10406397;28;20029;-60
2024/04/07 14:59:41;;;;;;;0.90;0.40;;;;;;;19.56;54.20;101035.03;10404828;28;20405;-61
2024/04/07 15:04:42;;;;;;;2.38;0.95;;;;;;;19.52;54.35;101033.97;10406775;28;20033;-60
2024/04/07 15:09:42;;;;;;;3.05;1.02;;;;;;;19.50;54.47;101030.78;10405127;28;20037;-60
2024/04/07 15:14:43;;;;;;;1.27;0.50;;;;;;;19.51;54.89;101024.31;10348312;28;1078422;-60
2024/04/07 15:19:43;;;;;;;5.47;0.70;;;;;;;19.53;53.81;101035.59;10407223;28;20029;-62
2024/04/07 15:24:44;;;;;;;6.35;1.08;;;;;;;19.51;52.66;101027.00;10374395;28;20288;-62
2024/04/07 15:29:44;;;;;;;5.77;1.00;;;;;;;19.53;51.40;101045.53;10361272;28;20052;-63
2024/04/07 15:34:45;;;;;;;5.90;2.23;;;;;;;19.48;49.77;101042.91;10383192;28;20304;-63
2024/04/07 15:39:45;;;;;;;5.53;0.82;;;;;;;19.54;51.82;101023.72;10405614;28;20033;-61
2024/04/07 15:44:45;;;;;;;3.95;0.77;;;;;;;19.67;52.69;101040.25;10389315;28;20020;-61
2024/04/07 15:49:46;;;;;;;1.37;0.77;;;;;;;19.74;52.67;101032.56;10419168;28;20029;-61
2024/04/07 15:54:46;;;;;;;6.00;1.20;;;;;;;19.85;52.48;101034.00;10389111;28;20013;-62
2024/04/07 15:59:46;;;;;;;2.20;0.87;;;;;;;19.91;54.21;101040.09;10406533;28;20272;-61
2024/04/07 16:04:46;;;;;;;4.67;1.07;;;;;;;19.91;54.58;101050.84;10405457;28;20624;-61
2024/04/07 16:09:47;;;;;;;5.00;1.10;;;;;;;20.19;53.46;101040.91;10406277;28;20276;-63
2024/04/07 16:14:47;;;;;;;4.80;1.77;;;;;;;19.95;55.54;101035.72;10409063;28;20049;-63
2024/04/07 16:19:47;;;;;;;5.30;1.45;;;;;;;19.97;55.71;101028.13;10412896;28;20021;-63
2024/04/07 16:24:48;;;;;;;14.47;2.73;;;;;;;20.06;54.43;101008.31;10413205;28;20045;-62
2024/04/07 16:29:51;;;;;;;6.78;1.75;;;;;;;20.12;55.30;101012.47;10395968;28;20579;-62
2024/04/07 16:34:53;;;;;;;10.32;1.70;;;;;;;19.99;54.21;101002.50;10413046;28;20034;-59
2024/04/07 16:39:53;;;;;;;8.00;2.55;;;;;;;19.94;54.23;100996.44;10395866;28;20030;-62
2024/04/07 16:44:54;;;;;;;19.83;2.93;;;;;;;19.89;55.67;101010.78;10395073;28;20112;-61
2024/04/07 16:49:54;;;;;;;11.37;3.23;;;;;;;19.81;55.96;101024.91;10394539;28;20826;-62
2024/04/07 16:54:54;;;;;;;11.27;2.07;;;;;;;19.68;55.78;101020.31;10403194;28;20108;-63
2024/04/07 16:59:58;;;;;;;6.90;1.70;;;;;;;19.72;55.27;101007.84;10393400;28;20688;-60
2024/04/07 17:04:59;;;;;;;16.00;2.15;;;;;;;19.70;55.35;100986.63;10394116;28;20538;-65
2024/04/07 17:09:59;;;;;;;6.30;2.33;;;;;;;19.70;55.12;101007.34;10393799;28;20033;-66
2024/04/07 17:14:59;;;;;;;9.23;1.60;;;;;;;19.69;54.76;101001.19;10394070;28;20035;-62
2024/04/07 17:20:00;;;;;;;6.38;1.27;;;;;;;19.60;55.81;101002.16;10410994;28;20025;-61
2024/04/07 17:25:04;;;;;;;6.03;1.50;;;;;;;19.52;55.04;101007.06;10410777;28;20041;-61
2024/04/07 17:30:05;;;;;;;7.30;1.55;;;;;;;19.48;55.28;101006.06;10376200;28;20491;-61
2024/04/07 17:35:06;;;;;;;5.65;1.67;;;;;;;19.43;55.33;101016.13;10400305;28;20033;-61
2024/04/07 17:40:07;;;;;;;4.45;1.60;;;;;;;19.40;55.36;101009.41;10411046;28;20029;-61
2024/04/07 17:45:07;;;;;;;4.78;1.15;;;;;;;19.38;55.62;101030.44;10409814;28;20630;-61
2024/04/07 17:50:07;;;;;;;6.03;1.47;;;;;;;19.35;54.76;101028.34;10393156;28;20029;-61
2024/04/07 17:55:08;;;;;;;3.13;1.17;;;;;;;19.34;54.63;101031.31;10375779;28;20033;-61
2024/04/07 18:00:09;;;;;;;2.67;1.13;;;;;;;19.33;54.63;101022.47;10393000;28;20028;-61
2024/04/07 18:05:09;;;;;;;4.28;1.00;;;;;;;19.35;55.11;101019.47;10398664;28;20052;-62
2024/04/07 18:10:10;;;;;;;2.17;0.80;;;;;;;19.36;55.08;101013.00;10409420;28;20064;-62
2024/04/07 18:15:10;;;;;;;6.27;1.73;;;;;;;19.34;55.58;101009.81;10407668;28;20300;-61
2024/04/07 18:20:10;;;;;;;9.88;2.08;;;;;;;19.39;55.33;101005.13;10408662;28;20283;-62
2024/04/07 18:25:11;;;;;;;2.53;1.37;;;;;;;19.46;55.55;100994.81;10408083;28;20472;-63
2024/04/07 18:30:11;;;;;;;4.65;1.10;;;;;;;19.48;55.55;100998.00;10390494;28;20287;-63
2024/04/07 18:35:12;;;;;;;2.30;0.85;;;;;;;19.47;55.26;101001.78;10368587;28;20065;-61
2024/04/07 18:40:12;;;;;;;2.88;1.02;;;;;;;19.42;55.36;101014.53;10397199;28;20037;-61
2024/04/07 18:45:13;;;;;;;4.05;1.17;;;;;;;19.41;55.24;101015.59;10425620;28;20079;-61
2024/04/07 18:50:15;;;;;;;5.80;1.20;;;;;;;19.39;55.72;101029.34;10424545;28;20021;-62
2024/04/07 18:55:15;;;;;;;3.55;0.88;;;;;;;19.39;55.44;101020.47;10410668;28;20040;-62
2024/04/07 19:00:16;;;;;;;4.07;0.90;;;;;;;19.39;55.10;101021.28;10389569;28;20048;-62
2024/04/07 19:05:16;;;;;;;5.43;1.15;;;;;;;19.37;55.58;101023.47;10370195;28;20029;-62
2024/04/07 19:10:16;;;;;;;6.50;1.30;;;;;;;19.36;55.18;101032.63;10382291;28;20481;-62
2024/04/07 19:15:17;;;;;;;5.88;1.25;;;;;;;19.37;55.73;101025.34;10403348;28;20049;-61
2024/04/07 19:20:17;;;;;;;3.28;0.73;;;;;;;19.37;55.69;101031.53;10404673;28;20036;-61
2024/04/07 19:25:18;;;;;;;3.95;1.02;;;;;;;19.37;56.02;101020.78;10405178;28;20097;-61
2024/04/07 19:30:18;;;;;;;3.92;1.42;;;;;;;19.39;55.90;101020.47;10404608;28;20069;-61
2024/04/07 19:35:18;;;;;;;4.33;1.67;;;;;;;19.38;55.83;101032.31;10394943;28;20018;-61
2024/04/07 19:40:19;;;;;;;4.83;1.03;;;;;;;19.37;56.35;101022.66;10387192;28;20276;-61
2024/04/07 19:45:19;;;;;;;3.87;1.10;;;;;;;19.37;56.00;101019.97;10386840;28;20465;-61
2024/04/07 19:50:19;;;;;;;3.47;0.90;;;;;;;19.37;55.69;101019.97;10400831;28;20296;-61
2024/04/07 19:55:23;;;;;;;2.77;0.83;;;;;;;19.36;55.92;101013.78;10395872;28;20032;-61
2024/04/07 20:00:24;;;;;;;4.20;1.15;;;;;;;19.36;56.58;101008.41;10413172;28;20291;-61
2024/04/07 20:05:24;;;;;;;4.53;1.25;;;;;;;19.36;55.97;101026.44;10413226;28;20381;-61
2024/04/07 20:10:24;;;;;;;2.58;0.88;;;;;;;19.36;56.09;101029.13;10407524;28;20017;-61
2024/04/07 20:15:25;;;;;;;1.73;0.80;;;;;;;19.35;56.25;101039.09;10363649;28;20077;-61
2024/04/07 20:20:27;;;;;;;3.10;1.08;;;;;;;19.34;55.94;101042.06;10356011;28;20358;-61
2024/04/07 20:25:27;;;;;;;3.10;0.95;;;;;;;19.34;55.97;101034.00;10355168;28;20085;-61
2024/04/07 20:30:28;;;;;;;3.30;1.55;;;;;;;19.35;56.33;101032.91;10373200;28;20425;-61
2024/04/07 20:35:28;;;;;;;3.33;1.33;;;;;;;19.33;56.21;101030.53;10362053;28;20022;-61
2024/04/07 20:40:28;;;;;;;2.57;0.93;;;;;;;19.34;55.99;101023.25;10354897;28;20768;-61
2024/04/07 20:45:29;;;;;;;4.10;0.90;;;;;;;19.33;55.98;101037.78;10371962;28;20026;-61
2024/04/07 20:50:31;;;;;;;2.67;0.80;;;;;;;19.32;56.19;101034.31;10337830;28;20481;-61
2024/04/07 20:55:31;;;;;;;2.42;0.93;;;;;;;19.32;56.27;101036.19;10371621;28;20125;-61
2024/04/07 21:00:32;;;;;;;2.00;0.70;;;;;;;19.32;55.78;101030.81;10371702;28;20036;-61
2024/04/07 21:05:32;;;;;;;1.83;0.80;;;;;;;19.31;56.00;101035.41;10371129;28;20273;-61
2024/04/07 21:10:32;;;;;;;2.57;0.80;;;;;;;19.31;56.02;101026.53;10371021;28;20351;-61
2024/04/07 21:15:33;;;;;;;1.95;0.70;;;;;;;19.30;56.07;101031.13;10396692;28;20308;-61
2024/04/07 21:20:35;;;;;;;7.63;2.07;;;;;;;19.29;56.62;101035.66;10412001;28;20045;-61
2024/04/07 21:25:36;;;;;;;2.25;0.85;;;;;;;19.29;56.00;101027.59;10411312;28;20477;-61
2024/04/07 21:30:37;;;;;;;1.05;0.50;;;;;;;19.29;55.82;101029.50;10410914;28;20021;-61
2024/04/07 21:35:38;;;;;;;1.52;0.70;;;;;;;19.29;55.78;101027.59;10360391;28;20022;-61
2024/04/07 21:40:38;;;;;;;1.83;0.68;;;;;;;19.28;56.07;101023.31;10352509;28;20026;-61
2024/04/07 21:45:39;;;;;;;2.38;0.82;;;;;;;19.28;56.04;101020.63;10370285;28;20470;-61
2024/04/07 21:50:39;;;;;;;2.47;0.80;;;;;;;19.28;55.96;101019.81;10370023;28;20068;-61
2024/04/07 21:55:39;;;;;;;3.17;1.00;;;;;;;19.27;55.96;101010.97;10351444;28;20028;-61
2024/04/07 22:00:40;;;;;;;2.13;0.77;;;;;;;19.26;56.40;101024.72;10369548;28;20303;-61
2024/04/07 22:05:40;;;;;;;2.50;1.10;;;;;;;19.26;56.20;101038.94;10368751;28;21027;-61
2024/04/07 22:10:41;;;;;;;3.47;0.80;;;;;;;19.25;56.34;101037.34;10368471;28;20292;-61
2024/04/07 22:15:41;;;;;;;3.47;0.98;;;;;;;19.24;56.28;101034.97;10368324;28;20300;-61
2024/04/07 22:20:42;;;;;;;1.60;0.80;;;;;;;19.24;56.07;101034.97;10368826;28;20424;-61
2024/04/07 22:25:42;;;;;;;3.20;0.55;;;;;;;19.23;56.30;101018.03;10368671;28;20022;-61
2024/04/07 22:30:42;;;;;;;3.20;1.03;;;;;;;19.23;56.40;101009.97;10351064;28;20030;-61
2024/04/07 22:35:43;;;;;;;1.70;1.03;;;;;;;19.22;55.99;100994.94;10367001;28;20285;-61
2024/04/07 22:40:43;;;;;;;2.13;0.90;;;;;;;19.22;55.98;100994.13;10350506;28;20272;-61
2024/04/07 22:45:43;;;;;;;2.17;1.00;;;;;;;19.22;56.23;100983.38;10367469;28;20022;-61
2024/04/07 22:50:44;;;;;;;2.63;0.70;;;;;;;19.21;56.31;100982.59;10350039;28;20295;-61
2024/04/07 22:55:44;;;;;;;1.20;0.60;;;;;;;19.21;56.21;100984.47;10367178;28;20030;-61
2024/04/07 23:00:44;;;;;;;1.77;0.73;;;;;;;19.21;56.35;100957.59;10367615;28;20040;-61
2024/04/07 23:05:51;;;;;;;3.57;1.20;;;;;;;19.20;56.28;100951.41;10367249;28;20283;-61